sensor_id;sensor_type;location;lat;lon;timestamp;P1;durP1;ratioP1;P2;durP2;ratioP2
59161;SDS011;44942;48.936;8.260;2023-05-07T00:01:52;5.20;;;3.10;;
59161;SDS011;44942;48.936;8.260;2023-05-07T00:06:53;9.55;;;3.00;;
59161;SDS011;44942;48.936;8.260;2023-05-07T00:11:53;5.30;;;3.30;;
59161;SDS011;44942;48.936;8.260;2023-05-07T00:16:55;4.87;;;3.17;;
59161;SDS011;44942;48.936;8.260;2023-05-07T00:21:55;5.20;;;2.95;;
59161;SDS011;44942;48.936;8.260;2023-05-07T00:26:56;4.70;;;3.20;;
59161;SDS011;44942;48.936;8.260;2023-05-07T00:31:58;4.38;;;3.10;;
59161;SDS011;44942;48.936;8.260;2023-05-07T00:36:58;5.57;;;2.80;;
59161;SDS011;44942;48.936;8.260;2023-05-07T00:41:59;5.30;;;2.90;;
59161;SDS011;44942;48.936;8.260;2023-05-07T00:52:02;3.08;;;2.78;;
59161;SDS011;44942;48.936;8.260;2023-05-07T00:57:03;4.63;;;3.30;;
59161;SDS011;44942;48.936;8.260;2023-05-07T01:02:04;5.53;;;3.45;;
59161;SDS011;44942;48.936;8.260;2023-05-07T01:07:04;5.93;;;3.30;;
59161;SDS011;44942;48.936;8.260;2023-05-07T01:12:06;5.95;;;3.45;;
59161;SDS011;44942;48.936;8.260;2023-05-07T01:22:08;4.57;;;3.43;;
59161;SDS011;44942;48.936;8.260;2023-05-07T01:27:14;4.90;;;3.25;;
59161;SDS011;44942;48.936;8.260;2023-05-07T01:32:15;4.43;;;3.00;;
59161;SDS011;44942;48.936;8.260;2023-05-07T01:37:21;5.45;;;3.10;;
59161;SDS011;44942;48.936;8.260;2023-05-07T01:42:22;4.38;;;2.97;;
59161;SDS011;44942;48.936;8.260;2023-05-07T01:47:23;5.70;;;3.08;;
59161;SDS011;44942;48.936;8.260;2023-05-07T01:52:25;3.92;;;3.05;;
59161;SDS011;44942;48.936;8.260;2023-05-07T01:57:27;6.00;;;3.13;;
59161;SDS011;44942;48.936;8.260;2023-05-07T02:02:27;4.50;;;2.87;;
59161;SDS011;44942;48.936;8.260;2023-05-07T02:07:28;5.20;;;3.03;;
59161;SDS011;44942;48.936;8.260;2023-05-07T02:12:29;7.00;;;3.37;;
59161;SDS011;44942;48.936;8.260;2023-05-07T02:17:29;4.73;;;3.10;;
59161;SDS011;44942;48.936;8.260;2023-05-07T02:22:31;4.63;;;3.00;;
59161;SDS011;44942;48.936;8.260;2023-05-07T02:27:32;3.87;;;3.40;;
59161;SDS011;44942;48.936;8.260;2023-05-07T02:32:32;5.07;;;3.47;;
59161;SDS011;44942;48.936;8.260;2023-05-07T02:37:33;4.50;;;3.07;;
59161;SDS011;44942;48.936;8.260;2023-05-07T02:42:33;5.40;;;3.57;;
59161;SDS011;44942;48.936;8.260;2023-05-07T02:47:34;3.70;;;3.13;;
59161;SDS011;44942;48.936;8.260;2023-05-07T02:52:35;3.80;;;3.40;;
59161;SDS011;44942;48.936;8.260;2023-05-07T02:57:35;5.87;;;3.20;;
59161;SDS011;44942;48.936;8.260;2023-05-07T03:02:36;4.23;;;3.30;;
59161;SDS011;44942;48.936;8.260;2023-05-07T03:07:36;7.90;;;3.40;;
59161;SDS011;44942;48.936;8.260;2023-05-07T03:12:37;4.60;;;3.23;;
59161;SDS011;44942;48.936;8.260;2023-05-07T03:17:38;4.68;;;3.10;;
59161;SDS011;44942;48.936;8.260;2023-05-07T03:22:38;5.32;;;3.30;;
59161;SDS011;44942;48.936;8.260;2023-05-07T03:27:39;3.27;;;2.97;;
59161;SDS011;44942;48.936;8.260;2023-05-07T03:32:41;4.18;;;3.45;;
59161;SDS011;44942;48.936;8.260;2023-05-07T03:37:42;4.47;;;3.00;;
59161;SDS011;44942;48.936;8.260;2023-05-07T03:42:42;3.53;;;3.07;;
59161;SDS011;44942;48.936;8.260;2023-05-07T03:47:43;5.70;;;3.00;;
59161;SDS011;44942;48.936;8.260;2023-05-07T03:52:44;4.50;;;2.90;;
59161;SDS011;44942;48.936;8.260;2023-05-07T03:57:44;6.43;;;3.20;;
59161;SDS011;44942;48.936;8.260;2023-05-07T04:02:45;4.00;;;3.37;;
59161;SDS011;44942;48.936;8.260;2023-05-07T04:07:46;5.50;;;4.20;;
59161;SDS011;44942;48.936;8.260;2023-05-07T04:12:46;5.90;;;3.90;;
59161;SDS011;44942;48.936;8.260;2023-05-07T04:17:47;5.53;;;4.00;;
59161;SDS011;44942;48.936;8.260;2023-05-07T04:22:47;6.03;;;3.80;;
59161;SDS011;44942;48.936;8.260;2023-05-07T04:27:48;5.57;;;3.50;;
59161;SDS011;44942;48.936;8.260;2023-05-07T04:32:55;4.00;;;3.60;;
59161;SDS011;44942;48.936;8.260;2023-05-07T04:42:57;4.07;;;3.10;;
59161;SDS011;44942;48.936;8.260;2023-05-07T04:47:57;5.40;;;3.70;;
59161;SDS011;44942;48.936;8.260;2023-05-07T04:52:58;5.20;;;3.50;;
59161;SDS011;44942;48.936;8.260;2023-05-07T04:57:59;6.50;;;3.30;;
59161;SDS011;44942;48.936;8.260;2023-05-07T05:03:01;4.13;;;3.20;;
59161;SDS011;44942;48.936;8.260;2023-05-07T05:08:02;7.47;;;3.67;;
59161;SDS011;44942;48.936;8.260;2023-05-07T05:13:02;4.93;;;3.17;;
59161;SDS011;44942;48.936;8.260;2023-05-07T05:18:03;7.93;;;3.70;;
59161;SDS011;44942;48.936;8.260;2023-05-07T05:23:03;5.57;;;3.30;;
59161;SDS011;44942;48.936;8.260;2023-05-07T05:28:04;5.60;;;3.30;;
59161;SDS011;44942;48.936;8.260;2023-05-07T05:33:05;3.80;;;3.20;;
59161;SDS011;44942;48.936;8.260;2023-05-07T05:38:05;5.57;;;3.80;;
59161;SDS011;44942;48.936;8.260;2023-05-07T05:43:06;6.07;;;3.60;;
59161;SDS011;44942;48.936;8.260;2023-05-07T05:48:07;5.17;;;3.47;;
59161;SDS011;44942;48.936;8.260;2023-05-07T05:58:09;8.40;;;3.17;;
59161;SDS011;44942;48.936;8.260;2023-05-07T06:03:09;6.43;;;3.67;;
59161;SDS011;44942;48.936;8.260;2023-05-07T06:08:10;6.70;;;3.60;;
59161;SDS011;44942;48.936;8.260;2023-05-07T06:13:13;4.72;;;3.05;;
59161;SDS011;44942;48.936;8.260;2023-05-07T06:18:14;4.37;;;3.10;;
59161;SDS011;44942;48.936;8.260;2023-05-07T06:23:14;4.90;;;2.80;;
59161;SDS011;44942;48.936;8.260;2023-05-07T06:28:15;8.90;;;2.87;;
59161;SDS011;44942;48.936;8.260;2023-05-07T06:33:16;4.97;;;2.70;;
59161;SDS011;44942;48.936;8.260;2023-05-07T06:38:16;3.47;;;2.90;;
59161;SDS011;44942;48.936;8.260;2023-05-07T06:43:17;12.17;;;3.10;;
59161;SDS011;44942;48.936;8.260;2023-05-07T06:48:17;4.27;;;2.70;;
59161;SDS011;44942;48.936;8.260;2023-05-07T06:53:21;4.43;;;2.90;;
59161;SDS011;44942;48.936;8.260;2023-05-07T06:58:21;5.53;;;3.17;;
59161;SDS011;44942;48.936;8.260;2023-05-07T07:03:22;5.00;;;3.25;;
59161;SDS011;44942;48.936;8.260;2023-05-07T07:08:23;4.17;;;3.47;;
59161;SDS011;44942;48.936;8.260;2023-05-07T07:13:23;6.43;;;2.93;;
59161;SDS011;44942;48.936;8.260;2023-05-07T07:18:24;3.07;;;2.60;;
59161;SDS011;44942;48.936;8.260;2023-05-07T07:23:25;4.83;;;2.93;;
59161;SDS011;44942;48.936;8.260;2023-05-07T07:28:25;4.77;;;2.70;;
59161;SDS011;44942;48.936;8.260;2023-05-07T07:33:26;4.33;;;2.90;;
59161;SDS011;44942;48.936;8.260;2023-05-07T07:38:26;4.83;;;2.70;;
59161;SDS011;44942;48.936;8.260;2023-05-07T07:43:28;3.97;;;3.03;;
59161;SDS011;44942;48.936;8.260;2023-05-07T07:48:28;3.33;;;3.00;;
59161;SDS011;44942;48.936;8.260;2023-05-07T07:53:29;3.03;;;2.80;;
59161;SDS011;44942;48.936;8.260;2023-05-07T07:58:30;3.40;;;3.05;;
59161;SDS011;44942;48.936;8.260;2023-05-07T08:03:30;7.60;;;3.03;;
59161;SDS011;44942;48.936;8.260;2023-05-07T08:08:32;4.50;;;3.05;;
59161;SDS011;44942;48.936;8.260;2023-05-07T08:13:33;5.80;;;3.00;;
59161;SDS011;44942;48.936;8.260;2023-05-07T08:18:33;7.23;;;3.00;;
59161;SDS011;44942;48.936;8.260;2023-05-07T08:23:34;3.63;;;2.80;;
59161;SDS011;44942;48.936;8.260;2023-05-07T08:28:35;2.93;;;2.60;;
59161;SDS011;44942;48.936;8.260;2023-05-07T08:33:35;2.75;;;2.40;;
59161;SDS011;44942;48.936;8.260;2023-05-07T08:38:37;3.90;;;2.92;;
59161;SDS011;44942;48.936;8.260;2023-05-07T08:43:37;3.75;;;2.90;;
59161;SDS011;44942;48.936;8.260;2023-05-07T08:48:41;4.03;;;2.95;;
59161;SDS011;44942;48.936;8.260;2023-05-07T08:53:41;3.27;;;2.70;;
59161;SDS011;44942;48.936;8.260;2023-05-07T08:58:43;3.95;;;2.67;;
59161;SDS011;44942;48.936;8.260;2023-05-07T09:03:44;4.25;;;2.90;;
59161;SDS011;44942;48.936;8.260;2023-05-07T09:08:52;3.67;;;2.80;;
59161;SDS011;44942;48.936;8.260;2023-05-07T09:13:54;4.40;;;3.25;;
59161;SDS011;44942;48.936;8.260;2023-05-07T09:18:57;3.50;;;2.92;;
59161;SDS011;44942;48.936;8.260;2023-05-07T09:24:00;3.22;;;2.88;;
59161;SDS011;44942;48.936;8.260;2023-05-07T09:29:00;5.00;;;2.97;;
59161;SDS011;44942;48.936;8.260;2023-05-07T09:34:01;3.27;;;2.90;;
59161;SDS011;44942;48.936;8.260;2023-05-07T09:39:04;4.07;;;2.92;;
59161;SDS011;44942;48.936;8.260;2023-05-07T09:44:05;3.97;;;3.35;;
59161;SDS011;44942;48.936;8.260;2023-05-07T09:49:06;3.50;;;2.90;;
59161;SDS011;44942;48.936;8.260;2023-05-07T09:54:13;5.03;;;2.70;;
59161;SDS011;44942;48.936;8.260;2023-05-07T09:59:15;5.40;;;3.33;;
59161;SDS011;44942;48.936;8.260;2023-05-07T10:04:16;3.88;;;2.80;;
59161;SDS011;44942;48.936;8.260;2023-05-07T10:14:19;5.03;;;2.80;;
59161;SDS011;44942;48.936;8.260;2023-05-07T10:19:21;3.28;;;2.78;;
59161;SDS011;44942;48.936;8.260;2023-05-07T10:24:26;4.20;;;3.10;;
59161;SDS011;44942;48.936;8.260;2023-05-07T10:34:36;4.88;;;2.95;;
59161;SDS011;44942;48.936;8.260;2023-05-07T10:39:40;3.72;;;3.28;;
59161;SDS011;44942;48.936;8.260;2023-05-07T10:44:41;5.97;;;3.22;;
59161;SDS011;44942;48.936;8.260;2023-05-07T10:54:45;3.00;;;2.70;;
59161;SDS011;44942;48.936;8.260;2023-05-07T11:11:07;4.18;;;2.78;;
59161;SDS011;44942;48.936;8.260;2023-05-07T11:15:56;3.42;;;2.50;;
59161;SDS011;44942;48.936;8.260;2023-05-07T11:20:58;6.32;;;5.72;;
59161;SDS011;44942;48.936;8.260;2023-05-07T11:31:10;62.73;;;52.33;;
59161;SDS011;44942;48.936;8.260;2023-05-07T11:41:12;50.63;;;45.13;;
59161;SDS011;44942;48.936;8.260;2023-05-07T11:46:13;49.60;;;44.50;;
59161;SDS011;44942;48.936;8.260;2023-05-07T11:51:14;44.50;;;40.00;;
59161;SDS011;44942;48.936;8.260;2023-05-07T11:56:19;38.58;;;34.75;;
59161;SDS011;44942;48.936;8.260;2023-05-07T12:06:21;29.40;;;26.37;;
59161;SDS011;44942;48.936;8.260;2023-05-07T12:11:22;29.27;;;26.20;;
59161;SDS011;44942;48.936;8.260;2023-05-07T12:16:24;27.98;;;25.23;;
59161;SDS011;44942;48.936;8.260;2023-05-07T12:21:25;24.95;;;22.55;;
59161;SDS011;44942;48.936;8.260;2023-05-07T12:26:26;43.28;;;22.60;;
59161;SDS011;44942;48.936;8.260;2023-05-07T12:31:26;22.70;;;19.60;;
59161;SDS011;44942;48.936;8.260;2023-05-07T12:36:37;22.27;;;20.17;;
59161;SDS011;44942;48.936;8.260;2023-05-07T12:46:54;19.80;;;17.75;;
59161;SDS011;44942;48.936;8.260;2023-05-07T12:51:55;19.10;;;17.23;;
59161;SDS011;44942;48.936;8.260;2023-05-07T12:57:05;17.83;;;16.13;;
59161;SDS011;44942;48.936;8.260;2023-05-07T13:02:07;18.38;;;16.48;;
59161;SDS011;44942;48.936;8.260;2023-05-07T13:12:09;18.60;;;16.70;;
59161;SDS011;44942;48.936;8.260;2023-05-07T13:17:09;17.73;;;15.77;;
59161;SDS011;44942;48.936;8.260;2023-05-07T13:22:10;17.30;;;15.60;;
59161;SDS011;44942;48.936;8.260;2023-05-07T13:27:11;17.60;;;15.80;;
59161;SDS011;44942;48.936;8.260;2023-05-07T13:32:11;17.07;;;15.47;;
59161;SDS011;44942;48.936;8.260;2023-05-07T13:37:12;16.30;;;14.60;;
59161;SDS011;44942;48.936;8.260;2023-05-07T13:42:12;16.50;;;15.00;;
59161;SDS011;44942;48.936;8.260;2023-05-07T13:47:13;15.23;;;13.67;;
59161;SDS011;44942;48.936;8.260;2023-05-07T13:52:13;14.80;;;13.40;;
59161;SDS011;44942;48.936;8.260;2023-05-07T13:57:14;14.20;;;12.80;;
59161;SDS011;44942;48.936;8.260;2023-05-07T14:02:15;17.25;;;13.32;;
59161;SDS011;44942;48.936;8.260;2023-05-07T14:07:15;26.43;;;15.60;;
59161;SDS011;44942;48.936;8.260;2023-05-07T14:12:16;19.80;;;16.93;;
59161;SDS011;44942;48.936;8.260;2023-05-07T14:17:17;17.70;;;15.90;;
59161;SDS011;44942;48.936;8.260;2023-05-07T14:22:17;19.35;;;15.85;;
59161;SDS011;44942;48.936;8.260;2023-05-07T14:27:18;18.73;;;16.80;;
59161;SDS011;44942;48.936;8.260;2023-05-07T14:32:18;18.43;;;16.63;;
59161;SDS011;44942;48.936;8.260;2023-05-07T14:37:20;18.50;;;16.70;;
59161;SDS011;44942;48.936;8.260;2023-05-07T14:42:20;18.73;;;16.93;;
59161;SDS011;44942;48.936;8.260;2023-05-07T14:47:21;20.90;;;18.90;;
59161;SDS011;44942;48.936;8.260;2023-05-07T14:52:21;21.07;;;18.97;;
59161;SDS011;44942;48.936;8.260;2023-05-07T14:57:22;20.23;;;18.07;;
59161;SDS011;44942;48.936;8.260;2023-05-07T15:02:22;18.97;;;17.03;;
59161;SDS011;44942;48.936;8.260;2023-05-07T15:07:26;19.52;;;17.63;;
59161;SDS011;44942;48.936;8.260;2023-05-07T15:12:26;18.02;;;16.23;;
59161;SDS011;44942;48.936;8.260;2023-05-07T15:17:27;18.23;;;16.40;;
59161;SDS011;44942;48.936;8.260;2023-05-07T15:22:28;17.25;;;15.63;;
59161;SDS011;44942;48.936;8.260;2023-05-07T15:27:29;17.65;;;15.95;;
59161;SDS011;44942;48.936;8.260;2023-05-07T15:32:31;17.70;;;15.90;;
59161;SDS011;44942;48.936;8.260;2023-05-07T15:37:31;17.13;;;15.50;;
59161;SDS011;44942;48.936;8.260;2023-05-07T15:42:32;17.73;;;16.02;;
59161;SDS011;44942;48.936;8.260;2023-05-07T15:47:34;16.52;;;14.88;;
59161;SDS011;44942;48.936;8.260;2023-05-07T15:57:35;15.00;;;13.50;;
59161;SDS011;44942;48.936;8.260;2023-05-07T16:02:36;15.80;;;14.30;;
59161;SDS011;44942;48.936;8.260;2023-05-07T16:07:36;14.77;;;13.32;;
59161;SDS011;44942;48.936;8.260;2023-05-07T16:12:39;15.23;;;13.73;;
59161;SDS011;44942;48.936;8.260;2023-05-07T16:17:40;14.70;;;13.40;;
59161;SDS011;44942;48.936;8.260;2023-05-07T16:22:43;13.60;;;12.27;;
59161;SDS011;44942;48.936;8.260;2023-05-07T16:27:44;14.38;;;13.07;;
59161;SDS011;44942;48.936;8.260;2023-05-07T16:32:45;14.35;;;12.73;;
59161;SDS011;44942;48.936;8.260;2023-05-07T16:37:48;13.25;;;12.02;;
59161;SDS011;44942;48.936;8.260;2023-05-07T16:42:49;13.57;;;12.27;;
59161;SDS011;44942;48.936;8.260;2023-05-07T16:47:50;12.73;;;11.60;;
59161;SDS011;44942;48.936;8.260;2023-05-07T16:52:50;13.40;;;12.00;;
59161;SDS011;44942;48.936;8.260;2023-05-07T16:57:51;13.60;;;12.23;;
59161;SDS011;44942;48.936;8.260;2023-05-07T17:02:52;12.68;;;11.48;;
59161;SDS011;44942;48.936;8.260;2023-05-07T17:07:52;13.40;;;12.10;;
59161;SDS011;44942;48.936;8.260;2023-05-07T17:12:54;12.35;;;11.15;;
59161;SDS011;44942;48.936;8.260;2023-05-07T17:17:54;14.07;;;12.73;;
59161;SDS011;44942;48.936;8.260;2023-05-07T17:22:55;13.47;;;12.10;;
59161;SDS011;44942;48.936;8.260;2023-05-07T17:27:56;13.83;;;12.43;;
59161;SDS011;44942;48.936;8.260;2023-05-07T17:32:56;12.37;;;11.07;;
59161;SDS011;44942;48.936;8.260;2023-05-07T17:37:57;11.60;;;10.43;;
59161;SDS011;44942;48.936;8.260;2023-05-07T17:42:58;12.02;;;10.82;;
59161;SDS011;44942;48.936;8.260;2023-05-07T17:48:00;13.85;;;11.07;;
59161;SDS011;44942;48.936;8.260;2023-05-07T17:53:01;23.90;;;10.07;;
59161;SDS011;44942;48.936;8.260;2023-05-07T17:58:05;18.80;;;7.90;;
59161;SDS011;44942;48.936;8.260;2023-05-07T18:03:06;14.05;;;7.85;;
59161;SDS011;44942;48.936;8.260;2023-05-07T18:08:06;10.40;;;8.50;;
59161;SDS011;44942;48.936;8.260;2023-05-07T18:13:10;15.43;;;8.18;;
59161;SDS011;44942;48.936;8.260;2023-05-07T18:18:11;7.93;;;7.10;;
59161;SDS011;44942;48.936;8.260;2023-05-07T18:23:12;9.07;;;7.07;;
59161;SDS011;44942;48.936;8.260;2023-05-07T18:28:12;7.80;;;6.70;;
59161;SDS011;44942;48.936;8.260;2023-05-07T18:33:13;10.47;;;6.60;;
59161;SDS011;44942;48.936;8.260;2023-05-07T18:38:13;9.23;;;6.50;;
59161;SDS011;44942;48.936;8.260;2023-05-07T18:43:14;11.00;;;6.67;;
59161;SDS011;44942;48.936;8.260;2023-05-07T18:48:15;7.88;;;6.13;;
59161;SDS011;44942;48.936;8.260;2023-05-07T18:53:16;10.18;;;6.53;;
59161;SDS011;44942;48.936;8.260;2023-05-07T18:58:16;9.30;;;6.30;;
59161;SDS011;44942;48.936;8.260;2023-05-07T19:03:18;7.80;;;6.28;;
59161;SDS011;44942;48.936;8.260;2023-05-07T19:08:19;9.55;;;5.93;;
59161;SDS011;44942;48.936;8.260;2023-05-07T19:13:20;7.90;;;5.97;;
59161;SDS011;44942;48.936;8.260;2023-05-07T19:18:22;9.02;;;5.95;;
59161;SDS011;44942;48.936;8.260;2023-05-07T19:23:22;6.30;;;5.47;;
59161;SDS011;44942;48.936;8.260;2023-05-07T19:28:23;7.00;;;5.67;;
59161;SDS011;44942;48.936;8.260;2023-05-07T19:33:25;7.82;;;6.10;;
59161;SDS011;44942;48.936;8.260;2023-05-07T19:38:28;6.10;;;5.45;;
59161;SDS011;44942;48.936;8.260;2023-05-07T19:43:31;9.00;;;5.70;;
59161;SDS011;44942;48.936;8.260;2023-05-07T19:48:35;6.88;;;5.43;;
59161;SDS011;44942;48.936;8.260;2023-05-07T19:53:38;8.65;;;5.40;;
59161;SDS011;44942;48.936;8.260;2023-05-07T19:58:39;7.63;;;5.35;;
59161;SDS011;44942;48.936;8.260;2023-05-07T20:03:40;9.13;;;5.25;;
59161;SDS011;44942;48.936;8.260;2023-05-07T20:08:41;6.30;;;5.70;;
59161;SDS011;44942;48.936;8.260;2023-05-07T20:13:43;6.03;;;5.18;;
59161;SDS011;44942;48.936;8.260;2023-05-07T20:18:44;6.37;;;5.17;;
59161;SDS011;44942;48.936;8.260;2023-05-07T20:23:44;9.60;;;5.43;;
59161;SDS011;44942;48.936;8.260;2023-05-07T20:28:45;6.17;;;5.20;;
59161;SDS011;44942;48.936;8.260;2023-05-07T20:33:45;6.50;;;5.30;;
59161;SDS011;44942;48.936;8.260;2023-05-07T20:38:46;6.23;;;5.27;;
59161;SDS011;44942;48.936;8.260;2023-05-07T20:43:47;7.20;;;5.13;;
59161;SDS011;44942;48.936;8.260;2023-05-07T20:48:47;5.93;;;5.35;;
59161;SDS011;44942;48.936;8.260;2023-05-07T20:53:48;6.95;;;5.60;;
59161;SDS011;44942;48.936;8.260;2023-05-07T20:58:49;6.53;;;5.17;;
59161;SDS011;44942;48.936;8.260;2023-05-07T21:03:49;5.63;;;5.10;;
59161;SDS011;44942;48.936;8.260;2023-05-07T21:08:52;6.72;;;5.63;;
59161;SDS011;44942;48.936;8.260;2023-05-07T21:13:53;5.72;;;5.13;;
59161;SDS011;44942;48.936;8.260;2023-05-07T21:18:54;6.57;;;5.33;;
59161;SDS011;44942;48.936;8.260;2023-05-07T21:23:54;6.37;;;5.20;;
59161;SDS011;44942;48.936;8.260;2023-05-07T21:28:59;8.07;;;4.95;;
59161;SDS011;44942;48.936;8.260;2023-05-07T21:33:59;20.00;;;5.53;;
59161;SDS011;44942;48.936;8.260;2023-05-07T21:39:00;6.75;;;4.88;;
59161;SDS011;44942;48.936;8.260;2023-05-07T21:44:04;6.60;;;4.65;;
59161;SDS011;44942;48.936;8.260;2023-05-07T21:49:04;5.18;;;4.68;;
59161;SDS011;44942;48.936;8.260;2023-05-07T21:54:05;5.47;;;4.93;;
59161;SDS011;44942;48.936;8.260;2023-05-07T21:59:06;7.32;;;4.97;;
59161;SDS011;44942;48.936;8.260;2023-05-07T22:04:07;6.90;;;4.60;;
59161;SDS011;44942;48.936;8.260;2023-05-07T22:09:07;5.33;;;4.80;;
59161;SDS011;44942;48.936;8.260;2023-05-07T22:14:09;4.70;;;4.30;;
59161;SDS011;44942;48.936;8.260;2023-05-07T22:19:10;6.90;;;4.70;;
59161;SDS011;44942;48.936;8.260;2023-05-07T22:24:10;7.07;;;4.57;;
59161;SDS011;44942;48.936;8.260;2023-05-07T22:29:11;5.53;;;4.80;;
59161;SDS011;44942;48.936;8.260;2023-05-07T22:34:12;6.20;;;4.77;;
59161;SDS011;44942;48.936;8.260;2023-05-07T22:39:12;5.00;;;4.50;;
59161;SDS011;44942;48.936;8.260;2023-05-07T22:44:13;5.10;;;4.60;;
59161;SDS011;44942;48.936;8.260;2023-05-07T22:49:13;5.60;;;4.90;;
59161;SDS011;44942;48.936;8.260;2023-05-07T22:54:14;6.87;;;4.47;;
59161;SDS011;44942;48.936;8.260;2023-05-07T22:59:14;5.73;;;4.97;;
59161;SDS011;44942;48.936;8.260;2023-05-07T23:04:15;5.00;;;4.50;;
59161;SDS011;44942;48.936;8.260;2023-05-07T23:09:15;7.53;;;5.03;;
59161;SDS011;44942;48.936;8.260;2023-05-07T23:14:16;6.87;;;4.90;;
59161;SDS011;44942;48.936;8.260;2023-05-07T23:19:17;4.83;;;4.40;;
59161;SDS011;44942;48.936;8.260;2023-05-07T23:24:17;7.37;;;5.00;;
59161;SDS011;44942;48.936;8.260;2023-05-07T23:29:18;5.50;;;4.80;;
59161;SDS011;44942;48.936;8.260;2023-05-07T23:34:18;5.97;;;5.38;;
59161;SDS011;44942;48.936;8.260;2023-05-07T23:39:22;5.32;;;4.82;;
59161;SDS011;44942;48.936;8.260;2023-05-07T23:44:23;6.10;;;5.50;;
59161;SDS011;44942;48.936;8.260;2023-05-07T23:49:23;7.33;;;5.33;;
59161;SDS011;44942;48.936;8.260;2023-05-07T23:54:24;6.50;;;5.80;;
59161;SDS011;44942;48.936;8.260;2023-05-07T23:59:24;7.00;;;6.00;;
